createdAt,value
2023-05-12T00:01:45.113Z,62.69
2023-05-12T00:04:28.569Z,63.43
2023-05-12T00:06:56.605Z,64.88
2023-05-12T00:09:24.719Z,65.47
2023-05-12T00:11:53.289Z,65.94
2023-05-12T00:14:23.017Z,65.83
2023-05-12T00:16:52.535Z,65.49
2023-05-12T00:19:21.316Z,64.69
2023-05-12T00:21:49.224Z,65.89
2023-05-12T00:24:17.467Z,65.99
2023-05-12T00:26:47.701Z,66.25
2023-05-12T00:29:15.564Z,65.67
2023-05-12T00:31:45.030Z,64.80
2023-05-12T00:34:13.118Z,64.19
2023-05-12T00:36:41.403Z,63.19
2023-05-12T00:39:10.209Z,63.50
2023-05-12T00:41:40.571Z,64.28
2023-05-12T00:44:08.573Z,63.36
2023-05-12T00:46:36.881Z,65.27
2023-05-12T00:49:06.733Z,66.25
2023-05-12T00:51:34.866Z,66.30
2023-05-12T00:54:03.707Z,66.29
2023-05-12T00:56:35.421Z,66.44
2023-05-12T00:59:03.543Z,65.28
2023-05-12T01:01:31.853Z,64.22
2023-05-12T01:04:00.346Z,62.82
2023-05-12T01:06:34.344Z,63.56
2023-05-12T01:09:02.945Z,63.91
2023-05-12T01:11:31.187Z,64.47
2023-05-12T01:13:59.070Z,64.28
2023-05-12T01:16:32.938Z,63.64
2023-05-12T01:19:03.635Z,63.70
2023-05-12T01:21:33.607Z,64.04
2023-05-12T01:24:08.791Z,62.63
2023-05-12T01:26:38.753Z,62.61
2023-05-12T01:29:08.679Z,64.18
2023-05-12T01:31:37.119Z,64.62
2023-05-12T01:34:05.811Z,64.68
2023-05-12T01:36:33.836Z,64.91
2023-05-12T01:39:02.176Z,65.37
2023-05-12T01:41:30.303Z,63.66
2023-05-12T01:43:59.612Z,63.46
2023-05-12T01:46:27.583Z,63.59
2023-05-12T01:48:56.037Z,64.39
2023-05-12T01:51:24.078Z,64.59
2023-05-12T01:53:52.322Z,64.10
2023-05-12T01:56:21.892Z,64.03
2023-05-12T01:58:50.627Z,61.77
2023-05-12T02:01:27.646Z,60.67
2023-05-12T02:03:56.122Z,60.19
2023-05-12T02:06:24.208Z,59.05
2023-05-12T02:08:52.326Z,58.36
2023-05-12T02:11:21.712Z,58.06
2023-05-12T02:13:51.269Z,58.94
2023-05-12T02:16:21.460Z,57.60
2023-05-12T02:18:50.150Z,57.72
2023-05-12T02:21:18.369Z,57.12
2023-05-12T02:23:46.671Z,56.89
2023-05-12T02:26:16.511Z,57.27
2023-05-12T02:28:44.872Z,56.53
2023-05-12T02:31:12.954Z,56.84
2023-05-12T02:33:42.336Z,56.54
2023-05-12T02:36:10.625Z,56.00
2023-05-12T02:38:40.172Z,55.96
2023-05-12T02:41:08.270Z,55.41
2023-05-12T02:43:36.374Z,55.77
2023-05-12T02:46:04.385Z,55.59
2023-05-12T02:48:32.304Z,55.71
2023-05-12T02:51:01.569Z,55.35
2023-05-12T02:53:29.630Z,55.62
2023-05-12T02:55:59.631Z,55.82
2023-05-12T02:58:29.564Z,55.57
2023-05-12T03:01:09.320Z,55.45
2023-05-12T03:03:39.278Z,55.73
2023-05-12T03:06:09.465Z,55.49
2023-05-12T03:08:38.224Z,55.64
2023-05-12T03:11:06.348Z,55.02
2023-05-12T03:13:34.621Z,55.53
2023-05-12T03:16:02.589Z,55.09
2023-05-12T03:18:30.579Z,55.23
2023-05-12T03:20:58.552Z,54.88
2023-05-12T03:23:27.958Z,55.10
2023-05-12T03:25:55.938Z,55.29
2023-05-12T03:28:24.817Z,54.59
2023-05-12T03:30:52.965Z,55.14
2023-05-12T03:33:20.972Z,55.27
2023-05-12T03:35:48.890Z,55.39
2023-05-12T03:38:17.122Z,55.27
2023-05-12T03:40:49.188Z,54.90
2023-05-12T03:43:17.361Z,55.56
2023-05-12T03:45:45.579Z,55.22
2023-05-12T03:48:14.754Z,54.81
2023-05-12T03:50:42.904Z,55.31
2023-05-12T03:53:10.885Z,55.00
2023-05-12T03:55:39.159Z,55.51
2023-05-12T03:58:08.794Z,55.16
2023-05-12T04:00:39.968Z,55.55
2023-05-12T04:03:08.265Z,54.84
2023-05-12T04:05:39.552Z,54.95
2023-05-12T04:08:07.934Z,55.08
2023-05-12T04:10:40.107Z,55.09
2023-05-12T04:13:09.908Z,55.28
2023-05-12T04:15:37.877Z,54.97
2023-05-12T04:18:05.862Z,54.89
2023-05-12T04:20:33.929Z,55.18
2023-05-12T04:23:02.061Z,55.15
2023-05-12T04:25:30.142Z,54.99
2023-05-12T04:27:58.185Z,55.59
2023-05-12T04:30:30.313Z,55.13
2023-05-12T04:32:58.358Z,54.79
2023-05-12T04:35:26.298Z,54.86
2023-05-12T04:37:54.298Z,54.61
2023-05-12T04:40:22.509Z,54.73
2023-05-12T04:42:54.359Z,54.50
2023-05-12T04:45:22.792Z,54.58
2023-05-12T04:47:56.316Z,54.61
2023-05-12T04:50:24.540Z,54.48
2023-05-12T04:52:52.488Z,54.38
2023-05-12T04:55:20.792Z,54.33
2023-05-12T04:57:51.155Z,53.88
2023-05-12T05:00:19.444Z,53.78
2023-05-12T05:02:47.532Z,53.59
2023-05-12T05:05:17.349Z,53.57
2023-05-12T05:07:45.416Z,53.54
2023-05-12T05:10:13.353Z,53.63
2023-05-12T05:12:42.107Z,53.34
2023-05-12T05:15:11.904Z,53.56
2023-05-12T05:17:41.052Z,52.82
2023-05-12T05:20:12.017Z,53.03
2023-05-12T05:22:42.539Z,52.78
2023-05-12T05:25:11.943Z,52.75
2023-05-12T05:27:41.016Z,52.45
2023-05-12T05:30:10.089Z,52.35
2023-05-12T05:32:40.458Z,52.44
2023-05-12T05:35:09.132Z,51.85
2023-05-12T05:37:37.590Z,51.63
2023-05-12T05:40:09.401Z,51.58
2023-05-12T05:42:37.341Z,51.42
2023-05-12T05:45:06.216Z,51.05
2023-05-12T05:47:34.488Z,50.94
2023-05-12T05:50:02.567Z,50.65
2023-05-12T05:52:30.773Z,50.37
2023-05-12T05:54:58.927Z,49.49
2023-05-12T05:57:28.345Z,49.57
2023-05-12T05:59:56.764Z,49.36
2023-05-12T06:02:25.246Z,49.17
2023-05-12T06:04:53.432Z,48.47
2023-05-12T06:07:22.263Z,48.28
2023-05-12T06:09:50.347Z,48.31
2023-05-12T06:12:18.450Z,47.98
2023-05-12T06:14:47.802Z,48.07
2023-05-12T06:17:15.886Z,47.67
2023-05-12T06:19:47.781Z,46.64
2023-05-12T06:22:16.117Z,46.48
2023-05-12T06:24:44.533Z,46.59
2023-05-12T06:27:13.011Z,46.28
2023-05-12T06:29:41.333Z,46.30
2023-05-12T06:32:11.044Z,45.46
2023-05-12T06:34:39.137Z,46.38
2023-05-12T06:37:07.382Z,46.57
2023-05-12T06:39:35.890Z,46.17
2023-05-12T06:42:03.969Z,46.10
2023-05-12T06:44:32.110Z,45.67
2023-05-12T06:47:00.175Z,45.76
2023-05-12T06:49:31.294Z,44.65
2023-05-12T06:51:59.197Z,43.84
2023-05-12T06:54:27.135Z,44.00
2023-05-12T06:56:55.084Z,43.52
2023-05-12T06:59:22.998Z,42.97
2023-05-12T07:01:51.324Z,43.13
2023-05-12T07:04:19.446Z,42.74
2023-05-12T07:06:48.996Z,42.97
2023-05-12T07:09:19.129Z,42.90
2023-05-12T07:11:47.859Z,42.30
2023-05-12T07:14:19.069Z,41.60
2023-05-12T07:16:46.993Z,41.41
2023-05-12T07:19:15.194Z,40.76
2023-05-12T07:21:43.443Z,41.19
2023-05-12T07:24:13.111Z,41.00
2023-05-12T07:26:41.681Z,41.32
2023-05-12T07:29:13.399Z,40.55
2023-05-12T07:31:44.790Z,40.52
2023-05-12T07:34:13.282Z,40.24
2023-05-12T07:36:41.273Z,40.62
2023-05-12T07:39:09.373Z,40.35
2023-05-12T07:41:39.676Z,40.80
2023-05-12T07:44:08.349Z,39.43
2023-05-12T07:46:36.582Z,39.61
2023-05-12T07:49:07.526Z,38.78
2023-05-12T07:51:35.665Z,38.99
2023-05-12T07:54:04.900Z,38.17
2023-05-12T07:56:32.983Z,38.19
2023-05-12T07:59:02.560Z,38.55
2023-05-12T08:01:30.527Z,38.12
2023-05-12T08:03:58.762Z,37.70
2023-05-12T08:06:26.836Z,37.53
2023-05-12T08:08:58.340Z,37.10
2023-05-12T08:11:26.592Z,35.82
2023-05-12T08:13:55.017Z,35.31
2023-05-12T08:16:24.792Z,34.92
2023-05-12T08:18:52.826Z,35.65
2023-05-12T08:21:20.832Z,33.79
2023-05-12T08:23:51.203Z,32.04
2023-05-12T08:26:19.304Z,30.64
2023-05-12T08:28:47.144Z,29.11
2023-05-12T08:31:15.229Z,28.46
2023-05-12T08:33:46.388Z,27.42
2023-05-12T08:36:20.324Z,28.06
2023-05-12T08:38:48.512Z,26.50
2023-05-12T08:41:24.281Z,26.09
2023-05-12T08:43:53.421Z,25.22
2023-05-12T08:46:22.212Z,25.20
2023-05-12T08:48:53.414Z,24.61
2023-05-12T08:51:23.302Z,24.76
2023-05-12T08:53:52.383Z,23.66
2023-05-12T08:58:53.681Z,22.85
2023-05-12T09:01:23.480Z,22.84
2023-05-12T09:03:57.389Z,21.35
2023-05-12T09:06:25.354Z,21.74
2023-05-12T09:08:53.430Z,21.84
2023-05-12T09:11:24.203Z,21.48
2023-05-12T09:13:56.226Z,22.51
2023-05-12T09:16:40.034Z,21.77
2023-05-12T09:19:09.736Z,20.66
2023-05-12T09:21:37.953Z,21.87
2023-05-12T09:24:07.842Z,21.06
2023-05-12T09:26:47.528Z,20.62
2023-05-12T09:29:27.782Z,20.98
2023-05-12T09:32:00.849Z,20.96
2023-05-12T09:34:31.699Z,21.28
2023-05-12T09:37:02.201Z,21.45
2023-05-12T09:39:30.176Z,22.58
2023-05-12T09:41:58.274Z,22.56
2023-05-12T09:44:29.018Z,23.45
2023-05-12T09:47:07.973Z,25.01
2023-05-12T09:49:38.543Z,25.06
2023-05-12T09:52:07.494Z,25.58
2023-05-12T09:54:36.489Z,26.48
2023-05-12T09:57:06.946Z,26.59
2023-05-12T09:59:36.632Z,26.83
2023-05-12T10:02:07.462Z,27.20
2023-05-12T10:04:45.762Z,27.33
2023-05-12T10:07:15.619Z,27.04
2023-05-12T10:09:45.212Z,27.33
2023-05-12T10:12:14.437Z,26.37
2023-05-12T10:14:42.806Z,26.89
2023-05-12T10:17:12.535Z,26.78
2023-05-12T10:19:43.405Z,26.76
2023-05-12T10:22:12.328Z,26.60
2023-05-12T10:24:42.089Z,26.15
2023-05-12T10:27:11.954Z,26.47
2023-05-12T10:29:40.521Z,27.27
2023-05-12T10:32:08.659Z,27.00
2023-05-12T10:34:38.892Z,27.32
2023-05-12T10:37:11.219Z,27.12
2023-05-12T10:39:49.341Z,26.92
2023-05-12T10:42:23.056Z,26.97
2023-05-12T10:44:52.132Z,26.89
2023-05-12T10:47:20.606Z,26.49
2023-05-12T10:49:59.739Z,26.22
2023-05-12T10:52:29.154Z,27.37
2023-05-12T10:55:03.453Z,27.15
2023-05-12T10:57:33.457Z,26.91
2023-05-12T11:00:03.844Z,27.20
2023-05-12T11:02:35.673Z,26.83
2023-05-12T11:05:17.477Z,27.47
2023-05-12T11:07:52.504Z,25.55
2023-05-12T11:10:21.979Z,27.32
2023-05-12T11:12:50.967Z,28.28
2023-05-12T11:15:19.277Z,28.97
2023-05-12T11:17:47.960Z,29.88
2023-05-12T11:20:31.132Z,29.46
2023-05-12T11:23:00.942Z,29.77
2023-05-12T11:25:30.477Z,29.48
2023-05-12T11:28:06.950Z,29.52
2023-05-12T11:30:54.908Z,27.20
2023-05-12T11:33:25.160Z,26.56
2023-05-12T11:36:14.559Z,28.43
2023-05-12T11:38:56.564Z,29.07
2023-05-12T11:42:36.589Z,28.46
2023-05-12T11:45:10.176Z,29.27
2023-05-12T11:47:52.118Z,30.07
2023-05-12T11:50:43.059Z,28.63
2023-05-12T11:53:22.778Z,28.84
2023-05-12T11:56:04.297Z,29.03
2023-05-12T11:58:45.146Z,29.56
2023-05-12T12:01:13.102Z,29.94
2023-05-12T12:03:48.937Z,29.82
2023-05-12T12:06:17.240Z,29.20
2023-05-12T12:08:55.206Z,28.49
2023-05-12T12:11:28.997Z,28.29
2023-05-12T12:13:57.774Z,28.98
2023-05-12T12:16:26.692Z,29.11
2023-05-12T12:18:55.256Z,29.10
2023-05-12T12:21:44.624Z,29.01
2023-05-12T12:24:13.743Z,29.63
2023-05-12T12:26:43.312Z,29.59
2023-05-12T12:29:13.003Z,29.13
2023-05-12T12:31:44.504Z,29.42
2023-05-12T12:34:12.598Z,29.29
2023-05-12T12:36:41.131Z,30.06
2023-05-12T12:39:09.187Z,29.79
2023-05-12T12:41:37.446Z,29.61
2023-05-12T12:44:07.361Z,29.86
2023-05-12T12:46:35.372Z,29.20
2023-05-12T12:49:03.457Z,29.16
2023-05-12T12:51:45.075Z,28.70
2023-05-12T12:54:13.432Z,27.92
2023-05-12T12:56:41.803Z,27.25
2023-05-12T12:59:11.887Z,27.78
2023-05-12T13:01:40.290Z,27.39
2023-05-12T13:04:08.162Z,27.46
2023-05-12T13:06:36.147Z,27.57
2023-05-12T13:09:04.583Z,27.03
2023-05-12T13:11:32.535Z,27.52
2023-05-12T13:14:02.302Z,27.33
2023-05-12T13:16:31.772Z,27.28
2023-05-12T13:19:00.053Z,26.64
2023-05-12T13:21:28.727Z,27.05
2023-05-12T13:23:56.778Z,27.34
2023-05-12T13:26:24.980Z,27.72
2023-05-12T13:28:52.834Z,27.95
2023-05-12T13:31:21.030Z,27.92
2023-05-12T13:33:50.546Z,27.47
2023-05-12T13:36:18.693Z,26.98
2023-05-12T13:38:49.464Z,26.64
2023-05-12T13:41:17.418Z,27.06
2023-05-12T13:43:45.363Z,27.32
2023-05-12T13:46:13.406Z,27.84
2023-05-12T13:48:42.059Z,27.55
2023-05-12T13:51:12.030Z,27.49
2023-05-12T13:53:40.294Z,27.71
2023-05-12T13:56:09.568Z,27.60
2023-05-12T13:58:37.559Z,27.62
2023-05-12T14:01:07.338Z,28.04
2023-05-12T14:03:37.292Z,27.58
2023-05-12T14:06:06.078Z,28.25
2023-05-12T14:08:36.453Z,28.08
2023-05-12T14:11:04.436Z,27.90
2023-05-12T14:13:33.212Z,28.25
2023-05-12T14:16:01.332Z,28.62
2023-05-12T14:18:29.271Z,28.62
2023-05-12T14:20:57.756Z,29.05
2023-05-12T14:23:26.031Z,29.03
2023-05-12T14:25:55.676Z,28.70
2023-05-12T14:28:24.525Z,28.38
2023-05-12T14:30:53.662Z,28.56
2023-05-12T14:33:21.853Z,28.88
2023-05-12T14:35:59.421Z,28.97
2023-05-12T14:38:38.615Z,29.73
2023-05-12T14:41:08.610Z,29.35
2023-05-12T14:43:36.948Z,30.04
2023-05-12T14:46:06.259Z,30.21
2023-05-12T14:48:35.180Z,30.10
2023-05-12T14:51:03.541Z,30.32
2023-05-12T14:53:34.530Z,30.85
2023-05-12T14:56:03.104Z,30.90
2023-05-12T14:58:33.482Z,31.13
2023-05-12T15:01:06.822Z,31.40
2023-05-12T15:03:36.097Z,31.50
2023-05-12T15:06:08.225Z,31.42
2023-05-12T15:08:36.371Z,31.46
2023-05-12T15:11:04.752Z,30.63
2023-05-12T15:13:35.393Z,30.98
2023-05-12T15:16:04.721Z,31.23
2023-05-12T15:18:33.420Z,31.60
2023-05-12T15:21:01.798Z,31.41
2023-05-12T15:23:29.861Z,31.68
2023-05-12T15:25:59.401Z,31.28
2023-05-12T15:28:27.695Z,30.75
2023-05-12T15:30:57.985Z,31.03
2023-05-12T15:33:26.160Z,31.30
2023-05-12T15:35:54.157Z,31.42
2023-05-12T15:38:22.287Z,31.61
2023-05-12T15:40:50.342Z,32.03
2023-05-12T15:43:18.968Z,32.12
2023-05-12T15:45:47.158Z,32.41
2023-05-12T15:48:16.640Z,32.45
2023-05-12T15:50:44.727Z,32.34
2023-05-12T15:53:12.723Z,32.27
2023-05-12T15:55:40.836Z,32.25
2023-05-12T15:58:09.188Z,32.16
2023-05-12T16:00:37.478Z,32.65
2023-05-12T16:03:05.725Z,32.87
2023-05-12T16:05:38.835Z,32.66
2023-05-12T16:08:06.761Z,32.77
2023-05-12T16:10:35.209Z,32.77
2023-05-12T16:13:04.427Z,32.45
2023-05-12T16:15:33.632Z,32.47
2023-05-12T16:18:01.877Z,32.93
2023-05-12T16:20:30.168Z,33.24
2023-05-12T16:23:04.836Z,33.09
2023-05-12T16:25:35.927Z,33.20
2023-05-12T16:28:04.089Z,33.34
2023-05-12T16:30:33.302Z,33.04
2023-05-12T16:33:01.395Z,32.26
2023-05-12T16:35:30.501Z,32.58
2023-05-12T16:37:59.839Z,32.68
2023-05-12T16:40:28.200Z,32.90
2023-05-12T16:42:56.606Z,33.23
2023-05-12T16:45:25.573Z,33.18
2023-05-12T16:47:54.046Z,33.70
2023-05-12T16:50:21.956Z,33.83
2023-05-12T16:52:50.183Z,33.62
2023-05-12T16:55:20.127Z,33.26
2023-05-12T16:57:48.171Z,33.07
2023-05-12T17:00:17.805Z,32.91
2023-05-12T17:02:46.132Z,33.01
2023-05-12T17:05:14.578Z,33.01
2023-05-12T17:07:42.614Z,32.69
2023-05-12T17:10:12.147Z,32.72
2023-05-12T17:12:41.580Z,33.09
2023-05-12T17:15:11.589Z,33.04
2023-05-12T17:17:39.736Z,32.96
2023-05-12T17:20:11.317Z,33.27
2023-05-12T17:22:44.050Z,33.40
2023-05-12T17:25:14.220Z,33.46
2023-05-12T17:27:44.942Z,33.31
2023-05-12T17:30:14.218Z,33.54
2023-05-12T17:32:43.527Z,33.42
2023-05-12T17:35:12.245Z,33.14
2023-05-12T17:37:40.516Z,33.28
2023-05-12T17:40:09.981Z,33.41
2023-05-12T17:42:38.233Z,33.13
2023-05-12T17:45:09.841Z,33.56
2023-05-12T17:47:38.126Z,33.43
2023-05-12T17:50:07.313Z,33.62
2023-05-12T17:52:35.408Z,33.12
2023-05-12T17:55:03.416Z,33.17
2023-05-12T17:57:32.056Z,32.65
2023-05-12T18:00:00.318Z,32.46
2023-05-12T18:02:29.825Z,32.67
2023-05-12T18:04:57.786Z,32.68
2023-05-12T18:07:26.011Z,32.90
2023-05-12T18:09:54.233Z,33.15
2023-05-12T18:12:22.372Z,33.36
2023-05-12T18:14:52.107Z,33.58
2023-05-12T18:17:20.357Z,33.37
2023-05-12T18:19:49.825Z,33.20
2023-05-12T18:22:18.439Z,33.46
2023-05-12T18:24:47.095Z,33.80
2023-05-12T18:27:15.086Z,34.05
2023-05-12T18:29:43.133Z,33.96
2023-05-12T18:32:11.245Z,34.29
2023-05-12T18:34:39.272Z,34.49
2023-05-12T18:37:08.715Z,34.96
2023-05-12T18:39:37.083Z,35.45
2023-05-12T18:42:05.544Z,36.16
2023-05-12T18:44:38.480Z,36.81
2023-05-12T18:47:07.240Z,37.48
2023-05-12T18:49:35.978Z,37.92
2023-05-12T18:52:04.879Z,38.79
2023-05-12T18:54:40.238Z,39.30
2023-05-12T18:57:08.335Z,39.45
2023-05-12T18:59:36.442Z,39.75
2023-05-12T19:02:04.836Z,40.46
2023-05-12T19:04:33.507Z,41.16
2023-05-12T19:07:01.465Z,41.49
2023-05-12T19:09:29.460Z,41.64
2023-05-12T19:11:58.853Z,42.34
2023-05-12T19:14:27.041Z,42.93
2023-05-12T19:16:54.979Z,43.20
2023-05-12T19:19:23.418Z,43.40
2023-05-12T19:21:52.009Z,43.98
2023-05-12T19:24:19.967Z,44.04
2023-05-12T19:26:48.017Z,44.58
2023-05-12T19:29:17.279Z,45.20
2023-05-12T19:31:45.665Z,45.11
2023-05-12T19:34:14.144Z,45.62
2023-05-12T19:36:43.460Z,45.63
2023-05-12T19:39:11.598Z,46.75
2023-05-12T19:41:41.307Z,47.42
2023-05-12T19:44:10.133Z,47.63
2023-05-12T19:46:40.349Z,47.81
2023-05-12T19:49:10.225Z,48.17
2023-05-12T19:51:38.540Z,47.94
2023-05-12T19:54:08.764Z,48.39
2023-05-12T19:56:44.444Z,49.64
2023-05-12T19:59:12.704Z,49.55
2023-05-12T20:01:42.389Z,50.65
2023-05-12T20:04:10.727Z,50.90
2023-05-12T20:06:38.930Z,50.82
2023-05-12T20:09:08.077Z,51.55
2023-05-12T20:11:36.248Z,51.15
2023-05-12T20:14:04.336Z,52.26
2023-05-12T20:16:34.842Z,51.94
2023-05-12T20:19:04.438Z,51.73
2023-05-12T20:21:33.383Z,52.32
2023-05-12T20:24:01.299Z,52.42
2023-05-12T20:26:30.743Z,52.81
2023-05-12T20:29:00.552Z,53.13
2023-05-12T20:31:29.165Z,53.30
2023-05-12T20:33:57.968Z,53.31
2023-05-12T20:36:27.332Z,53.17
2023-05-12T20:38:55.841Z,53.71
2023-05-12T20:41:24.101Z,54.08
2023-05-12T20:43:52.197Z,54.28
2023-05-12T20:46:21.178Z,54.66
2023-05-12T20:48:50.079Z,54.46
2023-05-12T20:51:18.396Z,54.84
2023-05-12T20:53:48.450Z,55.02
2023-05-12T20:56:17.490Z,54.89
2023-05-12T20:58:45.498Z,54.71
2023-05-12T21:01:14.675Z,54.76
2023-05-12T21:03:43.239Z,54.49
2023-05-12T21:06:12.877Z,54.91
2023-05-12T21:08:41.030Z,55.09
2023-05-12T21:11:17.259Z,55.09
2023-05-12T21:13:46.994Z,54.62
2023-05-12T21:16:15.330Z,54.78
2023-05-12T21:18:45.461Z,54.35
2023-05-12T21:21:13.722Z,54.13
2023-05-12T21:23:41.923Z,54.94
2023-05-12T21:26:11.732Z,54.72
2023-05-12T21:28:42.634Z,54.98
2023-05-12T21:31:11.063Z,55.24
2023-05-12T21:33:39.338Z,55.13
2023-05-12T21:36:08.040Z,54.96
2023-05-12T21:38:37.035Z,55.02
2023-05-12T21:41:05.061Z,54.86
2023-05-12T21:43:33.759Z,55.24
2023-05-12T21:46:05.905Z,55.43
2023-05-12T21:48:35.004Z,55.27
2023-05-12T21:51:04.738Z,54.98
2023-05-12T21:53:32.879Z,55.14
2023-05-12T21:56:00.735Z,55.09
2023-05-12T21:58:28.953Z,55.11
2023-05-12T22:00:57.463Z,55.17
2023-05-12T22:03:26.926Z,55.12
2023-05-12T22:05:54.991Z,55.09
2023-05-12T22:08:23.326Z,55.17
2023-05-12T22:10:53.700Z,55.07
2023-05-12T22:13:24.931Z,55.21
2023-05-12T22:15:53.522Z,55.00
2023-05-12T22:18:22.433Z,55.11
2023-05-12T22:20:52.507Z,54.90
2023-05-12T22:23:21.462Z,55.08
2023-05-12T22:25:49.476Z,55.34
2023-05-12T22:28:18.227Z,55.71
2023-05-12T22:30:47.578Z,56.29
2023-05-12T22:33:15.777Z,56.10
2023-05-12T22:35:43.829Z,56.25
2023-05-12T22:38:13.626Z,56.15
2023-05-12T22:40:42.972Z,56.28
2023-05-12T22:43:13.053Z,56.54
2023-05-12T22:45:41.374Z,56.37
2023-05-12T22:48:10.047Z,56.60
2023-05-12T22:50:38.708Z,56.67
2023-05-12T22:53:07.310Z,56.71
2023-05-12T22:55:36.898Z,57.10
2023-05-12T22:58:05.589Z,57.20
2023-05-12T23:00:34.952Z,57.97
2023-05-12T23:03:03.478Z,57.50
2023-05-12T23:05:32.484Z,57.64
2023-05-12T23:08:00.560Z,58.21
2023-05-12T23:10:28.561Z,57.69
2023-05-12T23:12:58.300Z,58.18
2023-05-12T23:15:26.504Z,58.51
2023-05-12T23:17:58.979Z,58.47
2023-05-12T23:20:28.738Z,58.53
2023-05-12T23:22:57.434Z,59.29
2023-05-12T23:25:25.461Z,59.77
2023-05-12T23:27:54.536Z,59.84
2023-05-12T23:30:24.648Z,59.84
2023-05-12T23:32:53.229Z,60.18
2023-05-12T23:35:22.797Z,60.55
2023-05-12T23:37:50.928Z,60.41
2023-05-12T23:40:22.279Z,60.31
2023-05-12T23:42:51.581Z,60.87
2023-05-12T23:45:20.226Z,60.33
2023-05-12T23:47:50.532Z,60.33
2023-05-12T23:50:22.052Z,60.94
2023-05-12T23:52:53.067Z,60.55
2023-05-12T23:55:21.314Z,61.11
2023-05-12T23:57:49.348Z,61.87
